Parker, PA (16049)

8:15 AM EDT on October 22, 2014 (GMT -0400)
Kaylor | Change Station
CLOSE
Current Station
Personal Weather Station
Location: Chicora, PA
Elevation: 1329 ft
Nearby Weather Stations

Elev 1329 ft 40.98 °N, 79.66 °W | Updated 28 seconds ago

Overcast
Overcast
44.1 °F
Feels Like 44 °F
N
1.1
Wind Variable Wind from SE
Gusts 3.6 mph

Today
High -- | Low -- °F
--% Chance of Precip.
Yesterday
High -- | Low -- °F
Precip. -- in
7:38 AM 6:27 PM
Waning Crescent, 2% visible
Pressure 30.14 in
Visibility 10.0 miles
Clouds Overcast 600 ft
Windchill 44 °F
Dew Point 41 °F
Humidity 90%
Rainfall 0.00 in
Snow Depth Not available.
UV 0 out of 12
Pollen .40 out of 12
Ozone Good
PM2.5 Good
Flu Activity Sporadic
METAR KFKL 221155Z 01004KT 10SM OVC006 06/04 A3014 RMK AO1 70062 10070 20060 52017

More Conditions Fewer Conditions

Pressure 30.14 in
Visibility 10.0 miles
Clouds Overcast 600 ft
Windchill 44 °F
Dew Point 41 °F
Humidity 90%
Rainfall 0.00 in
Snow Depth Not available.
UV 0 out of 12
Pollen .40 out of 12
Ozone Good
PM2.5 Good
Flu Activity Sporadic
METAR KFKL 221155Z 01004KT 10SM OVC006 06/04 A3014 RMK AO1 70062 10070 20060 52017

More Conditions Fewer Conditions

10-Day Weather Forecast

Almanac

Astronomy

Oct. 22, 2014 Rise Set
Actual Time 7:38 AM EDT 6:27 PM EDT
Civil Twilight 7:10 AM EDT 6:55 PM EDT
Nautical Twilight 6:37 AM EDT 7:27 PM EDT
Astronomical Twilight 6:06 AM EDT 7:59 PM EDT
Moon 6:17 AM EDT 5:53 PM EDT
Length of Visible Light 11h 45m
Length of Day
10h 49m
Tomorrow will be 2m 35s shorter.
Waning Crescent, 2% of the Moon is Illuminated
Today
Waning Crescent
Oct 23
New
Oct 30
First Quarter
Nov 6
Full
Nov 14
Last Quarter

Today's Extremes

State Highs State Lows

Community

WunderPhotos

Upload Photos

1,763,906 photos uploaded!

Nearby

Air Quality

  Air Quality AQ Index Pollutant
Yesterday Good
PM2.5
Yesterday Good
OZONE
Current Good
PM2.5
Current Good
OZONE
Wednesday Good
PM2.5
Thursday Good
PM2.5

Snow Depth

Station Depth Elevation
No new snow has been reported.

Earthquake Activity

City Distance Mag. Time & Date
No recent earthquake activity has been reported nearby.
Minimum magnitude displayed is 2.5.

Coastal Water Temperatures

Place Temperature
No Stations Reporting

Nearby Weather Stations